Time;durP1;ratioP1;P1;durP2;ratioP2;P2;SDS_P1;SDS_P2;PMS_P1;PMS_P2;Temp;Humidity;BMP_temperature;BMP_pressure;BME280_temperature;BME280_humidity;BME280_pressure;Samples;Min_cycle;Max_cycle;Signal;HPM_P1;HPM_P2
2022/08/29 00:01:10;;;;;;;32.75;14.82;;;14.00;99.90;;;;;;5088876;28;20115;-53
2022/08/29 00:03:36;;;;;;;33.67;11.73;;;14.00;99.90;;;;;;5090633;28;20101;-53
2022/08/29 00:06:02;;;;;;;24.75;10.10;;;14.00;99.90;;;;;;5090598;28;20467;-53
2022/08/29 00:08:28;;;;;;;23.92;8.80;;;14.00;99.90;;;;;;5090412;28;20028;-52
2022/08/29 00:10:54;;;;;;;12.30;6.20;;;13.90;99.90;;;;;;5089812;28;20153;-53
2022/08/29 00:13:19;;;;;;;13.50;6.90;;;13.90;99.90;;;;;;5090445;28;20054;-53
2022/08/29 00:15:45;;;;;;;14.45;6.43;;;13.90;99.90;;;;;;5090516;28;20452;-53
2022/08/29 00:18:13;;;;;;;14.80;5.40;;;13.90;99.90;;;;;;5083010;28;20033;-53
2022/08/29 00:20:39;;;;;;;15.30;5.85;;;13.90;99.90;;;;;;5080127;28;20109;-53
2022/08/29 00:23:05;;;;;;;13.75;5.72;;;13.80;99.90;;;;;;5090651;28;20486;-53
2022/08/29 00:25:31;;;;;;;16.63;6.43;;;13.80;99.90;;;;;;5089204;28;20170;-51
2022/08/29 00:27:57;;;;;;;16.15;5.65;;;13.80;99.90;;;;;;5090122;28;20099;-51
2022/08/29 00:30:23;;;;;;;14.45;6.00;;;13.80;99.90;;;;;;5090432;28;20016;-51
2022/08/29 00:32:49;;;;;;;12.77;5.57;;;13.80;99.90;;;;;;5089254;28;20031;-51
2022/08/29 00:35:22;;;;;;;15.20;5.03;;;13.80;99.90;;;;;;5089027;28;20028;-52
2022/08/29 00:37:50;;;;;;;21.38;6.78;;;13.70;99.90;;;;;;5089986;28;20048;-51
2022/08/29 00:40:19;;;;;;;16.30;6.20;;;13.70;99.90;;;;;;5089927;28;20016;-52
2022/08/29 00:42:45;;;;;;;13.30;5.65;;;13.70;99.90;;;;;;5089547;28;20085;-52
2022/08/29 00:45:12;;;;;;;11.23;5.22;;;13.70;99.90;;;;;;5090300;28;20468;-51
2022/08/29 00:47:44;;;;;;;15.07;5.45;;;13.70;99.90;;;;;;5088042;28;20463;-52
2022/08/29 00:50:21;;;;;;;12.43;5.75;;;13.70;99.90;;;;;;5077610;28;20031;-52
2022/08/29 00:52:47;;;;;;;13.63;5.18;;;13.70;99.90;;;;;;5069414;28;20107;-52
2022/08/29 00:55:21;;;;;;;11.90;5.32;;;13.70;99.90;;;;;;5069573;28;20247;-52
2022/08/29 00:57:51;;;;;;;10.80;5.00;;;13.70;99.90;;;;;;5068228;28;20029;-52
2022/08/29 01:00:18;;;;;;;18.85;6.32;;;13.70;99.90;;;;;;5069593;28;20067;-52
2022/08/29 01:02:44;;;;;;;15.00;6.60;;;13.70;99.90;;;;;;5068583;28;20481;-52
2022/08/29 01:05:12;;;;;;;16.73;5.60;;;13.70;99.90;;;;;;5069037;28;20447;-52
2022/08/29 01:07:38;;;;;;;16.02;5.00;;;13.70;99.90;;;;;;5069505;28;20060;-52
2022/08/29 01:10:05;;;;;;;15.60;5.20;;;13.70;99.90;;;;;;5069166;28;20025;-52
2022/08/29 01:12:33;;;;;;;13.20;5.38;;;13.70;99.90;;;;;;5068435;28;20017;-51
2022/08/29 01:15:05;;;;;;;11.07;4.80;;;13.70;99.90;;;;;;5068881;28;20052;-52
2022/08/29 01:17:36;;;;;;;11.48;5.40;;;13.70;99.90;;;;;;5068059;28;20552;-52
2022/08/29 01:20:23;;;;;;;11.77;5.57;;;13.70;99.90;;;;;;5072639;28;20063;-52
2022/08/29 01:23:01;;;;;;;22.08;5.72;;;13.70;99.90;;;;;;5048372;28;20037;-52
2022/08/29 01:25:32;;;;;;;10.73;5.10;;;13.70;99.90;;;;;;5047589;28;20120;-52
2022/08/29 01:28:10;;;;;;;13.13;5.55;;;13.70;99.90;;;;;;5048810;28;20108;-52
2022/08/29 01:30:36;;;;;;;14.82;5.43;;;13.70;99.90;;;;;;5047359;28;20025;-52
2022/08/29 01:33:02;;;;;;;13.32;5.70;;;13.70;99.90;;;;;;5048479;28;20255;-52
2022/08/29 01:35:28;;;;;;;17.30;6.43;;;13.70;99.90;;;;;;5049034;28;20025;-52
2022/08/29 01:37:54;;;;;;;21.52;5.32;;;13.70;99.90;;;;;;5048806;28;20040;-52
2022/08/29 01:40:20;;;;;;;8.77;5.63;;;13.60;99.90;;;;;;5048687;28;20074;-52
2022/08/29 01:42:46;;;;;;;22.63;5.70;;;13.60;99.90;;;;;;5046780;28;20021;-52
2022/08/29 01:45:12;;;;;;;21.60;5.68;;;13.60;99.90;;;;;;5048694;28;20021;-52
2022/08/29 01:47:38;;;;;;;15.45;5.50;;;13.60;99.90;;;;;;5049826;28;20033;-52
2022/08/29 01:50:12;;;;;;;13.43;5.45;;;13.60;99.90;;;;;;5076742;28;20028;-52
2022/08/29 01:52:38;;;;;;;12.57;5.88;;;13.60;99.90;;;;;;5046666;28;20499;-52
2022/08/29 01:55:04;;;;;;;12.18;4.82;;;13.60;99.90;;;;;;5062931;28;20031;-52
2022/08/29 01:57:29;;;;;;;15.05;6.20;;;13.60;99.90;;;;;;5068258;28;20177;-52
2022/08/29 01:59:55;;;;;;;12.48;5.15;;;13.60;99.90;;;;;;5068406;28;20538;-52
2022/08/29 02:02:26;;;;;;;14.13;5.53;;;13.60;99.90;;;;;;5067807;28;20488;-51
2022/08/29 02:04:51;;;;;;;11.98;5.15;;;13.60;99.90;;;;;;5068335;28;20032;-51
2022/08/29 02:07:19;;;;;;;11.10;5.32;;;13.60;99.90;;;;;;5067950;28;20190;-51
2022/08/29 02:09:46;;;;;;;12.15;4.82;;;13.70;99.90;;;;;;5068557;28;20529;-51
2022/08/29 02:12:13;;;;;;;19.30;5.85;;;13.60;99.90;;;;;;5068094;28;20120;-52
2022/08/29 02:14:38;;;;;;;12.63;5.22;;;13.60;99.90;;;;;;5068579;28;20450;-50
2022/08/29 02:17:05;;;;;;;13.27;5.65;;;13.60;99.90;;;;;;5068062;28;20078;-49
2022/08/29 02:19:31;;;;;;;15.23;6.72;;;13.60;99.90;;;;;;5072835;28;20078;-50
2022/08/29 02:21:58;;;;;;;17.40;5.78;;;13.50;99.90;;;;;;5082553;28;20063;-51
2022/08/29 02:24:24;;;;;;;14.07;5.22;;;13.50;99.90;;;;;;5079319;28;20116;-51
2022/08/29 02:26:50;;;;;;;16.55;5.47;;;13.50;99.90;;;;;;5067912;28;20116;-51
2022/08/29 02:29:16;;;;;;;10.75;5.43;;;13.50;99.90;;;;;;5068397;28;20074;-51
2022/08/29 02:31:42;;;;;;;17.83;5.95;;;13.50;99.90;;;;;;5067657;28;20032;-51
2022/08/29 02:34:08;;;;;;;13.65;5.20;;;13.50;99.90;;;;;;5067660;28;20078;-51
2022/08/29 02:36:35;;;;;;;14.10;5.32;;;13.60;99.90;;;;;;5068311;28;20344;-50
2022/08/29 02:39:00;;;;;;;12.82;5.93;;;13.50;99.90;;;;;;5067985;28;20360;-51
2022/08/29 02:41:26;;;;;;;18.92;6.05;;;13.60;99.90;;;;;;5067437;28;20033;-52
2022/08/29 02:43:53;;;;;;;9.38;5.10;;;13.60;99.90;;;;;;5068232;28;20418;-51
2022/08/29 02:46:19;;;;;;;11.80;5.25;;;13.70;99.90;;;;;;5066700;28;20086;-51
2022/08/29 02:48:46;;;;;;;10.93;5.10;;;13.70;99.90;;;;;;5072346;28;20028;-51
2022/08/29 02:51:24;;;;;;;17.35;4.82;;;13.80;99.90;;;;;;5078881;28;20073;-51
2022/08/29 02:53:50;;;;;;;10.75;5.10;;;13.80;99.90;;;;;;5088127;28;20024;-51
2022/08/29 02:56:17;;;;;;;11.23;5.95;;;13.80;99.90;;;;;;5088215;28;20027;-52
2022/08/29 02:58:42;;;;;;;17.05;6.15;;;13.80;99.90;;;;;;5089127;28;20067;-51
2022/08/29 03:01:09;;;;;;;17.42;5.78;;;13.70;99.90;;;;;;5091175;28;20059;-52
2022/08/29 03:03:35;;;;;;;12.90;5.22;;;13.70;99.90;;;;;;5091600;28;20476;-51
2022/08/29 03:06:01;;;;;;;12.68;5.55;;;13.70;99.90;;;;;;5091804;28;20063;-51
2022/08/29 03:08:26;;;;;;;13.95;5.30;;;13.60;99.90;;;;;;5091786;28;20071;-51
2022/08/29 03:10:52;;;;;;;14.90;5.43;;;13.60;99.90;;;;;;5091420;28;20228;-51
2022/08/29 03:13:18;;;;;;;8.77;5.13;;;13.60;99.90;;;;;;5091703;28;20173;-51
2022/08/29 03:15:43;;;;;;;14.43;5.63;;;13.60;99.90;;;;;;5091589;28;20028;-51
2022/08/29 03:18:09;;;;;;;12.10;5.95;;;13.70;99.90;;;;;;5088956;28;20169;-52
2022/08/29 03:20:36;;;;;;;12.55;5.32;;;13.70;99.90;;;;;;5082197;28;20399;-51
2022/08/29 03:23:03;;;;;;;13.82;5.60;;;13.70;99.90;;;;;;5091437;28;20031;-50
2022/08/29 03:25:29;;;;;;;13.18;5.65;;;13.70;99.90;;;;;;5091546;28;20065;-51
2022/08/29 03:27:54;;;;;;;17.13;5.10;;;13.70;99.90;;;;;;5091721;28;20067;-51
2022/08/29 03:30:20;;;;;;;16.20;5.10;;;13.70;99.90;;;;;;5091628;28;20028;-52
2022/08/29 03:32:47;;;;;;;15.80;5.72;;;13.70;99.90;;;;;;5091215;28;20023;-52
2022/08/29 03:35:13;;;;;;;14.52;5.63;;;13.70;99.90;;;;;;5090892;28;20483;-51
2022/08/29 03:37:39;;;;;;;14.75;4.85;;;13.70;99.90;;;;;;5091423;28;20032;-52
2022/08/29 03:40:07;;;;;;;10.38;5.00;;;13.70;99.90;;;;;;5085119;28;20025;-51
2022/08/29 03:42:32;;;;;;;15.35;5.63;;;13.80;99.90;;;;;;5070241;28;20029;-52
2022/08/29 03:45:01;;;;;;;12.45;5.97;;;13.70;99.90;;;;;;5070485;28;20032;-51
2022/08/29 03:47:27;;;;;;;13.30;5.53;;;13.80;99.90;;;;;;5069534;28;20454;-52
2022/08/29 03:49:52;;;;;;;13.90;5.07;;;13.70;99.90;;;;;;5070472;28;20096;-52
2022/08/29 03:52:18;;;;;;;10.07;5.38;;;13.80;99.90;;;;;;5070235;28;20025;-51
2022/08/29 03:54:43;;;;;;;14.88;5.57;;;13.70;99.90;;;;;;5070870;28;20029;-51
2022/08/29 03:57:09;;;;;;;11.95;4.85;;;13.80;99.90;;;;;;5070754;28;20048;-52
2022/08/29 03:59:35;;;;;;;13.63;5.40;;;13.80;99.90;;;;;;5070592;28;20031;-52
2022/08/29 04:02:00;;;;;;;15.30;5.50;;;13.80;99.90;;;;;;5070341;28;20535;-53
2022/08/29 04:07:12;;;;;;;10.90;5.10;;;13.80;99.90;;;;;;5070707;28;20112;-52
2022/08/29 04:09:39;;;;;;;13.25;5.07;;;13.80;99.90;;;;;;5070503;28;20024;-52
2022/08/29 04:12:06;;;;;;;11.60;4.80;;;13.70;99.90;;;;;;5069944;28;20096;-51
2022/08/29 04:14:31;;;;;;;13.50;5.45;;;13.70;99.90;;;;;;5068943;28;20024;-51
2022/08/29 04:16:57;;;;;;;12.07;5.22;;;13.80;99.90;;;;;;5073345;28;20077;-51
2022/08/29 04:19:22;;;;;;;14.75;5.40;;;13.70;99.90;;;;;;5070983;28;20060;-52
2022/08/29 04:21:48;;;;;;;12.77;5.22;;;13.70;99.90;;;;;;5074378;28;20035;-51
2022/08/29 04:24:15;;;;;;;14.32;5.22;;;13.70;99.90;;;;;;5090278;28;20028;-52
2022/08/29 04:26:41;;;;;;;18.00;5.25;;;13.70;99.90;;;;;;5088935;28;20077;-52
2022/08/29 04:29:08;;;;;;;10.25;4.68;;;13.80;99.90;;;;;;5090057;28;20475;-51
2022/08/29 04:31:35;;;;;;;14.05;5.43;;;13.80;99.90;;;;;;5089409;28;20032;-51
2022/08/29 04:34:02;;;;;;;13.38;5.60;;;13.90;99.90;;;;;;5078026;28;20140;-51
2022/08/29 04:36:27;;;;;;;13.50;5.28;;;13.90;99.90;;;;;;5069982;28;20492;-51
2022/08/29 04:38:53;;;;;;;13.80;4.97;;;13.90;99.90;;;;;;5069482;28;20043;-51
2022/08/29 04:41:20;;;;;;;14.98;5.03;;;14.00;99.90;;;;;;5068977;28;20469;-51
2022/08/29 04:43:46;;;;;;;15.73;5.28;;;14.00;99.90;;;;;;5069459;28;20429;-52
2022/08/29 04:46:13;;;;;;;19.17;5.07;;;14.00;99.90;;;;;;5069577;28;20028;-52
2022/08/29 04:48:39;;;;;;;14.68;5.20;;;14.00;99.90;;;;;;5071296;28;20030;-52
2022/08/29 04:51:05;;;;;;;10.23;5.45;;;14.10;99.90;;;;;;5080822;28;20534;-52
2022/08/29 04:53:31;;;;;;;10.05;4.72;;;14.10;99.90;;;;;;5089517;28;20035;-53
2022/08/29 04:55:56;;;;;;;16.52;5.80;;;14.10;99.90;;;;;;5089255;28;20379;-53
2022/08/29 04:58:24;;;;;;;15.90;5.97;;;14.20;99.90;;;;;;5088741;28;20034;-52
2022/08/29 05:00:50;;;;;;;9.10;5.03;;;14.20;99.90;;;;;;5088676;28;20057;-53
2022/08/29 05:03:15;;;;;;;13.65;4.97;;;14.20;99.90;;;;;;5077918;28;20021;-53
2022/08/29 05:05:41;;;;;;;15.35;5.18;;;14.30;99.90;;;;;;5068543;28;20029;-53
2022/08/29 05:08:06;;;;;;;12.98;5.05;;;14.30;99.90;;;;;;5068720;28;20055;-53
2022/08/29 05:10:32;;;;;;;8.98;4.80;;;14.30;99.90;;;;;;5067453;28;20029;-53
2022/08/29 05:12:58;;;;;;;15.40;5.53;;;14.30;99.90;;;;;;5067594;28;20259;-54
2022/08/29 05:15:23;;;;;;;16.83;5.15;;;14.30;99.90;;;;;;5068416;28;20070;-53
2022/08/29 05:17:49;;;;;;;13.32;5.55;;;14.40;99.90;;;;;;5068693;28;20111;-53
2022/08/29 05:20:15;;;;;;;11.77;4.95;;;14.40;99.90;;;;;;5075762;28;20027;-53
2022/08/29 05:22:41;;;;;;;13.45;4.80;;;14.30;99.90;;;;;;5088053;28;20094;-53
2022/08/29 05:25:08;;;;;;;9.13;4.80;;;14.30;99.90;;;;;;5089541;28;20024;-53
2022/08/29 05:27:33;;;;;;;9.70;4.80;;;14.30;99.90;;;;;;5089331;28;20424;-53
2022/08/29 05:30:00;;;;;;;13.43;4.90;;;14.30;99.90;;;;;;5088835;28;20071;-53
2022/08/29 05:32:25;;;;;;;8.85;4.82;;;14.40;99.90;;;;;;5088368;28;20369;-53
2022/08/29 05:34:51;;;;;;;13.45;4.85;;;14.50;99.90;;;;;;5088808;28;20078;-53
2022/08/29 05:37:19;;;;;;;11.27;4.68;;;14.50;99.90;;;;;;5089226;28;20074;-53
2022/08/29 05:39:46;;;;;;;13.02;5.55;;;14.50;99.90;;;;;;5089361;28;20034;-53
2022/08/29 05:42:12;;;;;;;15.98;5.00;;;14.60;99.90;;;;;;5088403;28;20024;-53
2022/08/29 05:44:39;;;;;;;18.02;6.28;;;14.70;99.90;;;;;;5087564;28;20052;-53
2022/08/29 05:47:07;;;;;;;20.45;5.50;;;14.80;99.90;;;;;;5087421;28;20039;-53
2022/08/29 05:49:36;;;;;;;9.63;5.25;;;14.90;99.90;;;;;;5084912;28;20506;-52
2022/08/29 05:52:01;;;;;;;17.00;5.25;;;14.90;99.90;;;;;;5083227;28;20031;-52
2022/08/29 05:54:27;;;;;;;10.45;5.53;;;15.10;99.90;;;;;;5088693;28;20020;-53
2022/08/29 05:56:52;;;;;;;7.80;5.13;;;15.20;99.90;;;;;;5088756;28;20223;-53
2022/08/29 05:59:18;;;;;;;16.67;5.63;;;15.20;99.90;;;;;;5088642;28;20021;-53
2022/08/29 06:01:45;;;;;;;13.07;4.75;;;15.30;99.90;;;;;;5088477;28;20051;-53
2022/08/29 06:04:12;;;;;;;13.57;5.53;;;15.30;99.90;;;;;;5088843;28;20044;-53
2022/08/29 06:06:39;;;;;;;14.45;5.63;;;15.40;99.90;;;;;;5088912;28;20055;-53
2022/08/29 06:09:06;;;;;;;15.13;5.32;;;15.40;99.90;;;;;;5088434;28;20071;-53
2022/08/29 06:11:33;;;;;;;14.00;5.78;;;15.50;99.90;;;;;;5087859;28;20032;-53
2022/08/29 06:14:00;;;;;;;12.55;5.20;;;15.60;99.90;;;;;;5088425;28;20513;-53
2022/08/29 06:16:27;;;;;;;11.23;4.82;;;15.60;99.90;;;;;;5088425;28;20041;-53
2022/08/29 06:18:53;;;;;;;18.90;5.32;;;15.70;99.90;;;;;;5081972;28;20024;-53
2022/08/29 06:21:19;;;;;;;13.68;5.05;;;15.80;99.90;;;;;;5077372;28;20012;-53
2022/08/29 06:23:46;;;;;;;10.75;4.63;;;15.90;99.90;;;;;;5088537;28;20099;-53
2022/08/29 06:26:12;;;;;;;14.45;5.75;;;15.90;99.90;;;;;;5088409;28;20031;-53
2022/08/29 06:28:39;;;;;;;14.30;5.38;;;16.00;99.90;;;;;;5088093;28;20026;-53
2022/08/29 06:31:20;;;;;;;19.98;5.93;;;16.00;99.90;;;;;;5068491;28;20194;-53
2022/08/29 06:33:49;;;;;;;17.70;6.38;;;16.00;99.90;;;;;;5069219;28;20059;-53
2022/08/29 06:36:14;;;;;;;13.43;5.80;;;16.10;99.90;;;;;;5072182;28;20260;-53
2022/08/29 06:38:40;;;;;;;28.10;7.35;;;16.10;99.90;;;;;;5072047;28;20479;-53
2022/08/29 06:41:12;;;;;;;14.48;5.90;;;16.10;99.90;;;;;;5071488;28;20138;-53
2022/08/29 06:43:39;;;;;;;22.55;6.40;;;16.30;99.90;;;;;;5072406;28;20251;-53
2022/08/29 06:46:05;;;;;;;20.58;7.85;;;16.30;99.90;;;;;;5072232;28;20384;-53
2022/08/29 06:48:31;;;;;;;20.13;7.68;;;16.30;99.90;;;;;;5072007;28;20024;-53
2022/08/29 06:50:59;;;;;;;18.77;7.88;;;16.40;99.90;;;;;;5079425;28;20380;-53
2022/08/29 06:53:26;;;;;;;19.25;6.85;;;16.50;99.90;;;;;;5090555;28;20026;-53
2022/08/29 06:55:51;;;;;;;17.80;7.68;;;16.60;99.90;;;;;;5091861;28;20012;-53
2022/08/29 06:58:16;;;;;;;22.48;7.90;;;16.60;99.90;;;;;;5092133;28;20032;-53
2022/08/29 07:00:42;;;;;;;26.02;7.35;;;16.80;99.90;;;;;;5091414;28;20031;-53
2022/08/29 07:03:08;;;;;;;23.20;8.55;;;16.90;99.90;;;;;;5091943;28;20149;-53
2022/08/29 07:05:34;;;;;;;17.00;7.35;;;17.00;99.90;;;;;;5091515;28;20035;-53
2022/08/29 07:07:59;;;;;;;24.85;8.45;;;17.10;99.90;;;;;;5091648;28;20028;-53
2022/08/29 07:10:45;;;;;;;26.65;8.15;;;17.10;99.90;;;;;;5076289;28;20024;-53
2022/08/29 07:13:10;;;;;;;21.90;8.00;;;17.20;99.90;;;;;;5068258;28;20095;-53
2022/08/29 07:15:36;;;;;;;21.98;8.73;;;17.10;99.90;;;;;;5054407;28;20548;-53
2022/08/29 07:18:01;;;;;;;20.92;8.55;;;17.10;99.90;;;;;;5068330;28;20048;-53
2022/08/29 07:20:27;;;;;;;18.20;7.93;;;17.00;99.90;;;;;;5053366;28;20069;-53
2022/08/29 07:22:54;;;;;;;19.55;8.23;;;16.90;99.90;;;;;;5084150;28;20245;-53
2022/08/29 07:25:20;;;;;;;18.05;7.75;;;17.00;99.90;;;;;;5091439;28;20085;-53
2022/08/29 07:27:47;;;;;;;21.15;7.63;;;17.10;99.90;;;;;;5089983;28;20028;-53
2022/08/29 07:30:15;;;;;;;17.13;7.35;;;17.00;99.90;;;;;;5091645;28;20073;-53
2022/08/29 07:32:44;;;;;;;24.63;8.25;;;17.20;99.90;;;;;;5090824;28;20099;-53
2022/08/29 07:35:15;;;;;;;16.52;7.30;;;17.30;99.90;;;;;;5084061;28;20512;-55
2022/08/29 07:37:40;;;;;;;19.40;7.32;;;17.50;99.90;;;;;;5066677;28;20039;-54
2022/08/29 07:40:08;;;;;;;15.50;7.68;;;17.70;99.90;;;;;;5070771;28;20237;-54
2022/08/29 07:42:53;;;;;;;17.73;7.28;;;17.70;99.90;;;;;;5069866;28;20041;-55
2022/08/29 07:45:19;;;;;;;18.73;7.53;;;18.00;99.90;;;;;;5067270;28;20040;-53
2022/08/29 07:47:44;;;;;;;15.13;7.53;;;18.10;99.90;;;;;;5067389;28;20209;-55
2022/08/29 07:50:13;;;;;;;17.90;8.73;;;18.20;99.90;;;;;;5073212;28;20509;-54
2022/08/29 07:52:38;;;;;;;19.50;6.97;;;18.30;99.90;;;;;;5068609;28;20025;-55
2022/08/29 07:55:05;;;;;;;17.88;7.15;;;18.10;99.90;;;;;;5069195;28;20017;-54
2022/08/29 07:57:31;;;;;;;16.10;7.40;;;18.10;99.90;;;;;;5069117;28;20028;-54
2022/08/29 07:59:56;;;;;;;15.52;7.25;;;18.10;99.90;;;;;;5070557;28;20484;-54
2022/08/29 08:02:22;;;;;;;17.38;7.38;;;18.20;99.90;;;;;;5070561;28;20025;-53
2022/08/29 08:04:47;;;;;;;12.70;7.43;;;18.40;99.90;;;;;;5070618;28;20522;-53
2022/08/29 08:07:14;;;;;;;16.92;7.57;;;18.70;99.90;;;;;;5070487;28;20028;-55
2022/08/29 08:09:39;;;;;;;18.52;7.43;;;19.20;99.90;;;;;;5070167;28;20476;-55
2022/08/29 08:12:06;;;;;;;13.82;6.80;;;19.50;99.90;;;;;;5069773;28;20031;-55
2022/08/29 08:14:33;;;;;;;14.77;6.93;;;19.80;99.90;;;;;;5070442;28;20020;-54
2022/08/29 08:17:00;;;;;;;13.60;6.50;;;20.30;99.90;;;;;;5070298;28;20476;-55
2022/08/29 08:19:26;;;;;;;18.65;7.13;;;20.60;99.90;;;;;;5070099;28;20640;-55
2022/08/29 08:21:52;;;;;;;13.50;5.68;;;20.60;99.90;;;;;;5080911;28;20058;-54
2022/08/29 08:24:18;;;;;;;14.10;6.43;;;20.80;99.90;;;;;;5090379;28;20330;-55
2022/08/29 08:26:44;;;;;;;14.02;6.88;;;21.00;99.90;;;;;;5087317;28;20040;-54
2022/08/29 08:29:11;;;;;;;14.63;6.47;;;21.30;99.90;;;;;;5070185;28;20051;-55
2022/08/29 08:31:42;;;;;;;13.40;6.72;;;21.40;99.90;;;;;;5089272;28;20237;-54
2022/08/29 08:34:08;;;;;;;16.45;6.75;;;21.70;99.90;;;;;;5090116;28;20475;-55
2022/08/29 08:36:37;;;;;;;14.75;6.45;;;21.80;99.90;;;;;;5069698;28;20112;-55
2022/08/29 08:39:04;;;;;;;12.32;5.97;;;22.00;99.90;;;;;;5069360;28;20020;-54
2022/08/29 08:41:53;;;;;;;12.80;6.28;;;22.00;99.90;;;;;;5068608;28;20033;-54
2022/08/29 08:44:23;;;;;;;9.18;6.03;;;23.00;99.90;;;;;;5067461;28;20017;-55
2022/08/29 08:46:57;;;;;;;19.85;6.70;;;24.20;99.10;;;;;;5069421;28;20017;-55
2022/08/29 08:49:46;;;;;;;12.05;6.05;;;24.20;97.90;;;;;;5070989;28;20024;-55
2022/08/29 08:52:19;;;;;;;10.68;5.95;;;24.20;97.40;;;;;;5080579;28;20093;-54
2022/08/29 08:55:01;;;;;;;12.45;6.13;;;24.20;97.60;;;;;;5089873;28;20021;-53
2022/08/29 08:57:36;;;;;;;13.98;6.82;;;24.30;96.80;;;;;;5069991;28;20039;-53
2022/08/29 09:00:05;;;;;;;12.93;6.47;;;24.30;97.20;;;;;;5069531;28;20175;-54
2022/08/29 09:02:30;;;;;;;16.80;7.35;;;25.20;95.70;;;;;;5068336;28;20524;-55
2022/08/29 09:05:23;;;;;;;11.88;6.53;;;25.90;94.00;;;;;;5068888;28;20032;-54
2022/08/29 09:08:07;;;;;;;12.25;6.43;;;26.40;93.00;;;;;;5068700;28;20415;-56
2022/08/29 09:10:40;;;;;;;11.52;5.97;;;27.10;92.20;;;;;;5066004;28;20036;-55
2022/08/29 09:13:28;;;;;;;11.65;6.50;;;28.10;88.80;;;;;;5068825;28;20032;-55
2022/08/29 09:15:57;;;;;;;15.65;6.68;;;28.90;86.80;;;;;;5066286;28;20626;-56
2022/08/29 09:18:38;;;;;;;17.67;6.78;;;28.50;82.70;;;;;;5068462;28;20484;-55
2022/08/29 09:21:09;;;;;;;11.65;6.18;;;27.90;84.90;;;;;;5070722;28;20056;-55
2022/08/29 09:23:40;;;;;;;8.60;5.53;;;27.80;84.60;;;;;;5070708;28;20016;-55
2022/08/29 09:26:06;;;;;;;13.55;6.57;;;28.30;84.70;;;;;;5068941;28;20470;-55
2022/08/29 09:28:32;;;;;;;17.00;8.13;;;27.70;84.30;;;;;;5067481;28;20068;-55
2022/08/29 09:31:21;;;;;;;15.40;8.82;;;28.00;81.80;;;;;;5068260;28;20020;-54
2022/08/29 09:33:59;;;;;;;10.00;5.88;;;28.30;82.30;;;;;;5068716;28;20051;-55
2022/08/29 09:36:49;;;;;;;15.77;6.97;;;29.00;81.00;;;;;;5068813;28;20029;-56
2022/08/29 09:39:24;;;;;;;9.57;6.22;;;28.60;79.20;;;;;;5068817;28;20028;-56
2022/08/29 09:41:56;;;;;;;13.75;7.03;;;28.90;79.80;;;;;;5068530;28;20131;-54
2022/08/29 09:44:33;;;;;;;11.98;6.07;;;28.80;80.00;;;;;;5068733;28;20035;-53
2022/08/29 09:47:07;;;;;;;13.75;6.80;;;28.60;80.60;;;;;;5068244;28;20028;-53
2022/08/29 09:49:34;;;;;;;10.30;6.43;;;28.50;80.20;;;;;;5069213;28;20020;-54
2022/08/29 09:52:22;;;;;;;10.48;6.35;;;28.40;80.60;;;;;;5079677;28;20024;-53
2022/08/29 09:54:47;;;;;;;8.32;5.53;;;28.90;80.00;;;;;;5089148;28;20114;-54
2022/08/29 09:57:25;;;;;;;15.68;6.90;;;29.50;79.00;;;;;;5089035;28;20154;-55
2022/08/29 10:00:13;;;;;;;14.48;6.00;;;29.60;76.30;;;;;;5088847;28;20111;-56
2022/08/29 10:02:42;;;;;;;11.23;5.78;;;29.90;76.60;;;;;;5088180;28;20040;-54
2022/08/29 10:05:24;;;;;;;8.43;4.88;;;30.80;74.00;;;;;;5088734;28;20020;-55
2022/08/29 10:07:51;;;;;;;7.95;4.68;;;30.50;74.10;;;;;;5088681;28;20043;-55
2022/08/29 10:10:20;;;;;;;10.07;5.60;;;31.30;71.40;;;;;;5088918;28;20044;-55
2022/08/29 10:13:03;;;;;;;12.40;5.80;;;30.20;73.80;;;;;;5088292;28;20024;-55
2022/08/29 10:15:57;;;;;;;10.73;6.00;;;30.60;73.50;;;;;;5088640;28;20048;-55
2022/08/29 10:18:34;;;;;;;9.35;5.50;;;30.50;72.20;;;;;;5088105;28;20035;-55
2022/08/29 10:21:46;;;;;;;9.02;5.55;;;30.10;73.70;;;;;;5071039;28;20024;-55
2022/08/29 10:24:16;;;;;;;11.82;6.13;;;30.20;71.70;;;;;;5042793;28;20037;-54
2022/08/29 10:27:10;;;;;;;8.93;4.90;;;28.60;74.00;;;;;;5048285;28;20028;-56
2022/08/29 10:29:55;;;;;;;11.20;5.88;;;28.70;75.20;;;;;;5046737;28;20033;-55
2022/08/29 10:32:27;;;;;;;12.07;6.13;;;28.40;77.90;;;;;;5047583;28;20028;-55
2022/08/29 10:35:14;;;;;;;12.30;6.45;;;28.80;75.90;;;;;;5047764;28;20029;-54
2022/08/29 10:37:54;;;;;;;9.38;4.93;;;29.90;74.70;;;;;;5048179;28;20147;-55
2022/08/29 10:40:41;;;;;;;9.85;4.70;;;30.10;71.20;;;;;;5048082;28;20604;-56
2022/08/29 10:43:33;;;;;;;12.38;5.45;;;29.60;72.10;;;;;;5047947;28;20045;-55
2022/08/29 10:46:41;;;;;;;10.13;4.72;;;29.50;73.90;;;;;;5048006;28;20021;-56
2022/08/29 10:49:45;;;;;;;9.10;4.80;;;28.70;75.80;;;;;;5052610;28;20035;-54
2022/08/29 10:52:25;;;;;;;11.90;5.53;;;28.40;74.80;;;;;;5070971;28;20391;-55
2022/08/29 10:55:12;;;;;;;12.50;5.20;;;27.40;77.00;;;;;;5068321;28;20045;-54
2022/08/29 10:57:44;;;;;;;8.38;4.63;;;27.00;77.80;;;;;;5068089;28;20235;-54
2022/08/29 11:00:26;;;;;;;12.02;5.30;;;26.30;78.40;;;;;;5067950;28;20222;-54
2022/08/29 11:03:03;;;;;;;10.70;5.63;;;25.90;80.00;;;;;;5067321;28;20032;-54
2022/08/29 11:05:42;;;;;;;9.73;5.00;;;25.70;82.00;;;;;;5067927;28;20029;-54
2022/08/29 11:08:16;;;;;;;11.85;4.93;;;25.80;80.30;;;;;;5066529;28;20370;-54
2022/08/29 11:10:44;;;;;;;8.88;5.07;;;26.40;80.70;;;;;;5067252;28;20115;-54
2022/08/29 11:13:26;;;;;;;8.23;4.63;;;28.00;75.10;;;;;;5067658;28;20392;-54
2022/08/29 11:16:11;;;;;;;10.52;5.25;;;28.90;76.30;;;;;;5068108;28;20035;-54
2022/08/29 11:18:48;;;;;;;10.00;4.75;;;30.20;73.00;;;;;;5067238;28;20414;-55
2022/08/29 11:21:47;;;;;;;10.82;5.28;;;29.50;73.00;;;;;;5075629;28;20120;-54
2022/08/29 11:24:15;;;;;;;9.07;5.50;;;28.60;73.70;;;;;;5091847;28;20024;-54
2022/08/29 11:26:44;;;;;;;12.65;5.00;;;27.50;74.60;;;;;;5091447;28;20123;-56
2022/08/29 11:29:23;;;;;;;13.52;5.25;;;27.20;77.70;;;;;;5091612;28;20043;-55
2022/08/29 11:32:03;;;;;;;11.40;4.70;;;26.80;78.40;;;;;;5091048;28;20019;-55
2022/08/29 11:35:06;;;;;;;10.05;4.97;;;26.80;79.00;;;;;;5091479;28;20429;-56
2022/08/29 11:37:53;;;;;;;12.25;5.20;;;28.20;75.40;;;;;;5091315;28;20028;-56
2022/08/29 11:41:01;;;;;;;8.30;4.65;;;30.00;74.70;;;;;;5090053;28;20270;-55
2022/08/29 11:43:37;;;;;;;12.35;4.75;;;30.50;70.80;;;;;;5067372;28;20040;-56
2022/08/29 11:46:06;;;;;;;7.72;3.92;;;30.90;70.60;;;;;;5091040;28;20073;-55
2022/08/29 11:48:46;;;;;;;6.93;3.70;;;32.00;68.50;;;;;;5090949;28;20028;-55
2022/08/29 11:51:32;;;;;;;;;;;32.10;65.70;;;;;;5075277;28;20015;-55
2022/08/29 11:54:23;;;;;;;9.00;4.20;;;32.40;66.10;;;;;;5090872;28;19904;-56
2022/08/29 11:57:01;;;;;;;11.65;4.38;;;32.20;64.90;;;;;;5091282;28;20070;-56
2022/08/29 11:59:48;;;;;;;7.88;4.05;;;31.60;64.90;;;;;;5090878;28;20031;-55
2022/08/29 12:02:31;;;;;;;10.23;4.72;;;31.40;66.60;;;;;;5090147;28;20105;-56
2022/08/29 12:05:15;;;;;;;6.68;4.13;;;31.80;65.70;;;;;;5089115;28;20505;-56
2022/08/29 12:07:54;;;;;;;12.80;4.47;;;31.80;64.40;;;;;;5090633;28;20024;-55
2022/08/29 12:10:22;;;;;;;7.97;4.13;;;31.30;62.50;;;;;;5089284;28;20043;-55
2022/08/29 12:13:02;;;;;;;7.68;3.95;;;30.00;65.30;;;;;;5090045;28;20489;-55
2022/08/29 12:15:39;;;;;;;7.75;3.50;;;29.60;66.20;;;;;;5090601;28;20060;-55
2022/08/29 12:18:12;;;;;;;6.40;3.72;;;29.60;69.00;;;;;;5090440;28;20040;-56
2022/08/29 12:20:54;;;;;;;7.97;4.30;;;29.60;69.20;;;;;;5080576;28;20085;-55
2022/08/29 12:23:26;;;;;;;9.45;4.43;;;29.20;70.30;;;;;;5088278;28;20658;-56
2022/08/29 12:26:33;;;;;;;8.80;4.07;;;28.90;69.40;;;;;;5090795;28;20137;-56
2022/08/29 12:29:00;;;;;;;8.35;4.28;;;28.90;68.80;;;;;;5075837;28;20083;-56
2022/08/29 12:31:43;;;;;;;11.75;4.75;;;28.90;69.00;;;;;;5089606;28;20020;-56
2022/08/29 12:34:26;;;;;;;9.40;4.63;;;27.90;70.80;;;;;;5090342;28;20016;-54
2022/08/29 12:37:06;;;;;;;10.93;4.20;;;27.90;71.90;;;;;;5090100;28;20024;-55
2022/08/29 12:39:49;;;;;;;7.85;4.22;;;27.90;73.20;;;;;;5090339;28;20470;-56
2022/08/29 12:42:25;;;;;;;9.10;4.38;;;28.20;73.10;;;;;;5089897;28;20493;-55
2022/08/29 12:45:16;;;;;;;6.78;3.85;;;28.40;72.90;;;;;;5090314;28;20032;-55
2022/08/29 12:47:49;;;;;;;8.00;3.90;;;28.10;71.60;;;;;;5089932;28;20039;-54
2022/08/29 12:50:22;;;;;;;6.60;3.70;;;28.00;69.30;;;;;;5083864;28;20024;-55
2022/08/29 12:53:28;;;;;;;7.63;3.60;;;28.30;70.20;;;;;;5082605;28;20024;-54
2022/08/29 12:55:57;;;;;;;5.75;3.67;;;27.70;69.00;;;;;;5068529;28;20036;-55
2022/08/29 12:58:37;;;;;;;6.28;3.60;;;27.00;70.90;;;;;;5090020;28;20020;-54
2022/08/29 13:01:06;;;;;;;10.10;3.75;;;27.10;72.90;;;;;;5089151;28;20440;-54